createdAt,value
2019-01-19T00:02:00.159Z,24.70
2019-01-19T00:04:49.535Z,22.20
2019-01-19T00:07:47.951Z,18.45
2019-01-19T00:10:37.559Z,13.55
2019-01-19T00:13:24.165Z,14.75
2019-01-19T00:16:10.688Z,28.95
2019-01-19T00:19:04.367Z,23.67
2019-01-19T00:21:36.007Z,17.75
2019-01-19T00:24:13.367Z,21.97
2019-01-19T00:26:59.627Z,23.67
2019-01-19T00:29:45.767Z,24.50
2019-01-19T00:32:37.543Z,27.27
2019-01-19T00:35:17.856Z,19.62
2019-01-19T00:37:45.333Z,25.35
2019-01-19T00:40:25.382Z,26.93
2019-01-19T00:42:56.787Z,21.10
2019-01-19T00:45:31.099Z,21.40
2019-01-19T00:48:17.390Z,19.95
2019-01-19T00:50:57.840Z,14.90
2019-01-19T00:53:34.827Z,12.63
2019-01-19T00:56:06.496Z,12.47
2019-01-19T00:58:49.290Z,14.40
2019-01-19T01:01:47.563Z,7.60
2019-01-19T01:04:31.219Z,15.60
2019-01-19T01:07:37.482Z,20.80
2019-01-19T01:10:27.250Z,11.57
2019-01-19T01:13:16.775Z,17.48
2019-01-19T01:16:00.346Z,17.50
2019-01-19T01:18:34.653Z,10.80
2019-01-19T01:21:09.373Z,9.90
2019-01-19T01:23:55.616Z,12.10
2019-01-19T01:26:36.190Z,8.78
2019-01-19T01:29:16.484Z,14.15
2019-01-19T01:31:48.151Z,15.30
2019-01-19T01:34:31.670Z,12.90
2019-01-19T01:37:05.838Z,16.93
2019-01-19T01:39:40.255Z,21.30
2019-01-19T01:42:20.736Z,14.53
2019-01-19T01:45:17.824Z,17.07
2019-01-19T01:47:49.459Z,18.07
2019-01-19T01:50:29.811Z,13.78
2019-01-19T01:53:04.108Z,15.63
2019-01-19T01:55:35.444Z,11.95
2019-01-19T01:58:09.816Z,10.98
2019-01-19T02:00:41.519Z,11.83
2019-01-19T02:03:21.622Z,10.48
2019-01-19T02:06:08.076Z,13.30
2019-01-19T02:09:05.069Z,13.40
2019-01-19T02:11:47.794Z,18.55
2019-01-19T02:14:27.759Z,18.23
2019-01-19T02:17:21.894Z,19.95
2019-01-19T02:19:56.314Z,19.80
2019-01-19T02:22:30.734Z,8.05
2019-01-19T02:25:05.215Z,6.75
2019-01-19T02:27:42.573Z,9.88
2019-01-19T02:30:23.073Z,9.00
2019-01-19T02:33:00.577Z,7.90
2019-01-19T02:35:35.167Z,7.97
2019-01-19T02:38:21.664Z,7.58
2019-01-19T02:41:02.071Z,8.88
2019-01-19T02:43:48.638Z,12.98
2019-01-19T02:46:25.920Z,12.85
2019-01-19T02:49:03.194Z,8.60
2019-01-19T02:51:34.859Z,12.93
2019-01-19T02:54:27.568Z,15.32
2019-01-19T02:57:07.961Z,12.45
2019-01-19T03:00:03.507Z,10.93
2019-01-19T03:02:55.867Z,8.20
2019-01-19T03:05:30.037Z,8.53
2019-01-19T03:08:16.614Z,8.78
2019-01-19T03:10:59.940Z,11.85
2019-01-19T03:13:49.523Z,11.57
2019-01-19T03:16:52.628Z,9.53
2019-01-19T03:19:33.131Z,8.55
2019-01-19T03:22:04.815Z,10.40
2019-01-19T03:24:41.986Z,9.18
2019-01-19T03:27:19.607Z,9.30
2019-01-19T03:29:57.032Z,11.70
2019-01-19T03:32:34.184Z,9.58
2019-01-19T03:35:32.650Z,9.20
2019-01-19T03:38:13.183Z,7.60
2019-01-19T03:40:53.423Z,5.70
2019-01-19T03:43:27.656Z,7.72
2019-01-19T03:46:08.787Z,15.95
2019-01-19T03:48:52.387Z,9.08
2019-01-19T03:51:26.787Z,3.22
2019-01-19T03:54:04.342Z,3.90
2019-01-19T03:56:41.795Z,8.58
2019-01-19T03:59:29.726Z,7.12
2019-01-19T04:02:22.023Z,8.45
2019-01-19T04:05:10.049Z,8.95
2019-01-19T04:07:47.668Z,11.68
2019-01-19T04:10:30.987Z,10.55
2019-01-19T04:13:08.484Z,8.98
2019-01-19T04:15:56.416Z,8.00
2019-01-19T04:18:30.792Z,7.00
2019-01-19T04:21:02.501Z,11.40
2019-01-19T04:23:31.332Z,14.98
2019-01-19T04:26:01.655Z,10.13
2019-01-19T04:28:30.410Z,10.28
2019-01-19T04:30:59.007Z,11.22
2019-01-19T04:33:27.576Z,9.78
2019-01-19T04:35:56.231Z,6.67
2019-01-19T04:38:24.881Z,8.38
2019-01-19T04:40:53.701Z,12.63
2019-01-19T04:43:22.304Z,5.87
2019-01-19T04:45:50.901Z,5.58
2019-01-19T04:48:21.340Z,7.28
2019-01-19T04:50:49.961Z,5.40
2019-01-19T04:53:18.522Z,6.58
2019-01-19T04:55:47.086Z,9.93
2019-01-19T04:58:15.698Z,6.58
2019-01-19T05:00:44.262Z,8.83
2019-01-19T05:03:12.885Z,7.05
2019-01-19T05:05:41.479Z,9.43
2019-01-19T05:08:10.064Z,7.42
2019-01-19T05:10:38.648Z,7.53
2019-01-19T05:13:07.231Z,5.05
2019-01-19T05:15:35.795Z,4.78
2019-01-19T05:18:05.187Z,2.65
2019-01-19T05:20:33.758Z,4.28
2019-01-19T05:23:02.348Z,3.72
2019-01-19T05:25:30.913Z,8.13
2019-01-19T05:27:59.496Z,3.30
2019-01-19T05:30:28.061Z,1.60
2019-01-19T05:32:56.648Z,8.03
2019-01-19T05:35:25.211Z,2.58
2019-01-19T05:37:53.799Z,1.95
2019-01-19T05:40:22.367Z,12.98
2019-01-19T05:42:50.954Z,3.70
2019-01-19T05:45:19.512Z,3.35
2019-01-19T05:47:48.095Z,6.37
2019-01-19T05:50:18.903Z,8.13
2019-01-19T05:52:47.492Z,3.47
2019-01-19T05:55:16.055Z,4.60
2019-01-19T05:57:44.640Z,5.97
2019-01-19T06:00:23.083Z,3.87
2019-01-19T06:02:51.685Z,6.75
2019-01-19T06:05:20.239Z,6.03
2019-01-19T06:07:48.900Z,5.53
2019-01-19T06:10:17.996Z,9.35
2019-01-19T06:12:46.587Z,8.80
2019-01-19T06:15:15.987Z,6.22
2019-01-19T06:17:44.578Z,6.33
2019-01-19T06:20:17.736Z,5.72
2019-01-19T06:22:46.603Z,13.90
2019-01-19T06:25:16.290Z,8.30
2019-01-19T06:27:44.963Z,12.88
2019-01-19T06:30:21.472Z,16.97
2019-01-19T06:32:50.062Z,7.55
2019-01-19T06:35:18.699Z,13.75
2019-01-19T06:37:47.352Z,8.25
2019-01-19T06:40:17.760Z,5.35
2019-01-19T06:42:46.415Z,7.65
2019-01-19T06:45:17.316Z,7.75
2019-01-19T06:47:45.898Z,6.03
2019-01-19T06:50:17.539Z,4.97
2019-01-19T06:52:46.130Z,4.90
2019-01-19T06:55:20.495Z,5.08
2019-01-19T06:57:49.087Z,5.55
2019-01-19T07:00:18.490Z,6.97
2019-01-19T07:02:47.206Z,5.25
2019-01-19T07:05:15.782Z,10.50
2019-01-19T07:07:44.371Z,4.17
2019-01-19T07:10:15.279Z,9.05
2019-01-19T07:12:43.866Z,4.70
2019-01-19T07:15:13.370Z,4.37
2019-01-19T07:17:41.955Z,3.47
2019-01-19T07:20:13.263Z,11.03
2019-01-19T07:22:41.851Z,4.85
2019-01-19T07:25:10.487Z,4.80
2019-01-19T07:27:39.070Z,8.43
2019-01-19T07:30:13.315Z,10.20
2019-01-19T07:32:41.894Z,5.28
2019-01-19T07:35:10.601Z,6.83
2019-01-19T07:37:39.189Z,7.53
2019-01-19T07:40:10.854Z,3.67
2019-01-19T07:42:40.519Z,4.58
2019-01-19T07:45:11.020Z,6.67
2019-01-19T07:47:40.776Z,8.00
2019-01-19T07:50:12.344Z,4.33
2019-01-19T07:52:40.932Z,9.40
2019-01-19T07:55:12.006Z,35.28
2019-01-19T07:57:40.670Z,57.62
2019-01-19T08:00:17.634Z,56.83
2019-01-19T08:02:46.226Z,67.10
2019-01-19T08:05:14.790Z,23.27
2019-01-19T08:07:43.428Z,22.70
2019-01-19T08:10:17.438Z,12.37
2019-01-19T08:12:46.271Z,11.73
2019-01-19T08:15:20.198Z,9.65
2019-01-19T08:17:48.759Z,8.45
2019-01-19T08:20:17.392Z,9.88
2019-01-19T08:22:45.979Z,8.40
2019-01-19T08:25:14.887Z,7.47
2019-01-19T08:27:43.470Z,9.98
2019-01-19T08:30:17.787Z,8.58
2019-01-19T08:32:46.461Z,9.43
2019-01-19T08:35:16.665Z,15.20
2019-01-19T08:37:45.435Z,8.88
2019-01-19T08:40:22.201Z,8.58
2019-01-19T08:42:52.426Z,6.85
2019-01-19T08:45:21.160Z,18.20
2019-01-19T08:47:49.749Z,24.90
2019-01-19T08:50:18.315Z,29.50
2019-01-19T08:52:46.903Z,22.52
2019-01-19T08:55:15.466Z,20.77
2019-01-19T08:57:44.040Z,15.90
2019-01-19T09:00:18.162Z,14.93
2019-01-19T09:02:47.345Z,12.93
2019-01-19T09:05:16.252Z,18.02
2019-01-19T09:07:44.919Z,16.42
2019-01-19T09:10:18.544Z,21.33
2019-01-19T09:12:47.104Z,20.60
2019-01-19T09:15:21.577Z,19.37
2019-01-19T09:17:50.135Z,27.32
2019-01-19T09:20:18.723Z,27.95
2019-01-19T09:22:49.007Z,30.45
2019-01-19T09:25:17.598Z,39.85
2019-01-19T09:27:46.172Z,26.80
2019-01-19T09:30:20.383Z,24.00
2019-01-19T09:32:49.120Z,25.77
2019-01-19T09:35:18.078Z,24.30
2019-01-19T09:37:46.967Z,23.00
2019-01-19T09:40:17.835Z,21.07
2019-01-19T09:42:46.475Z,18.62
2019-01-19T09:45:19.210Z,17.45
2019-01-19T09:47:47.830Z,21.00
2019-01-19T09:50:17.767Z,21.33
2019-01-19T09:52:46.394Z,19.17
2019-01-19T09:55:15.132Z,21.15
2019-01-19T09:57:43.762Z,14.55
2019-01-19T10:00:26.639Z,11.85
2019-01-19T10:02:55.279Z,15.85
2019-01-19T10:05:25.115Z,15.48
2019-01-19T10:07:53.742Z,9.58
2019-01-19T10:10:22.487Z,14.13
2019-01-19T10:12:51.049Z,17.42
2019-01-19T10:15:20.775Z,12.05
2019-01-19T10:17:49.339Z,17.23
2019-01-19T10:20:20.731Z,18.27
2019-01-19T10:22:49.362Z,23.30
2019-01-19T10:25:18.034Z,33.02
2019-01-19T10:27:46.659Z,21.68
2019-01-19T10:30:20.639Z,16.32
2019-01-19T10:32:49.407Z,12.43
2019-01-19T10:35:18.058Z,13.90
2019-01-19T10:37:46.759Z,12.80
2019-01-19T10:40:17.350Z,13.65
2019-01-19T10:42:46.260Z,11.05
2019-01-19T10:45:17.926Z,10.50
2019-01-19T10:47:46.568Z,14.40
2019-01-19T10:50:17.286Z,8.28
2019-01-19T10:52:46.191Z,11.00
2019-01-19T10:55:17.523Z,6.78
2019-01-19T10:57:46.159Z,23.83
2019-01-19T11:00:23.118Z,9.20
2019-01-19T11:02:51.688Z,10.20
2019-01-19T11:05:20.586Z,9.80
2019-01-19T11:07:49.629Z,11.93
2019-01-19T11:10:20.414Z,7.15
2019-01-19T11:12:49.062Z,8.33
2019-01-19T11:15:18.731Z,11.55
2019-01-19T11:17:47.487Z,7.85
2019-01-19T11:20:21.240Z,12.78
2019-01-19T11:22:49.799Z,11.05
2019-01-19T11:25:18.382Z,9.38
2019-01-19T11:27:46.943Z,7.80
2019-01-19T11:30:25.831Z,13.43
2019-01-19T11:32:54.539Z,10.08
2019-01-19T11:35:23.187Z,10.23
2019-01-19T11:37:51.738Z,9.30
2019-01-19T11:40:22.664Z,7.67
2019-01-19T11:42:51.227Z,17.02
2019-01-19T11:45:21.542Z,9.78
2019-01-19T11:47:50.102Z,10.93
2019-01-19T11:50:18.956Z,9.18
2019-01-19T11:52:47.956Z,8.75
2019-01-19T11:55:21.582Z,7.65
2019-01-19T11:57:55.698Z,10.13
2019-01-19T12:00:29.119Z,6.15
2019-01-19T12:02:57.684Z,9.30
2019-01-19T12:05:26.341Z,7.72
2019-01-19T12:07:54.970Z,10.60
2019-01-19T12:10:26.367Z,10.60
2019-01-19T12:12:55.062Z,8.90
2019-01-19T12:15:23.647Z,11.35
2019-01-19T12:17:52.551Z,9.08
2019-01-19T12:20:40.067Z,11.12
2019-01-19T12:23:09.483Z,8.65
2019-01-19T12:25:39.930Z,9.75
2019-01-19T12:28:08.563Z,9.23
2019-01-19T12:30:37.142Z,12.18
2019-01-19T12:33:05.871Z,9.50
2019-01-19T12:35:34.518Z,8.10
2019-01-19T12:38:03.413Z,9.55
2019-01-19T12:40:32.058Z,9.03
2019-01-19T12:43:03.523Z,7.95
2019-01-19T12:45:40.447Z,12.45
2019-01-19T12:48:09.777Z,13.90
2019-01-19T12:50:38.359Z,10.70
2019-01-19T12:53:06.919Z,9.10
2019-01-19T12:55:35.501Z,9.85
2019-01-19T12:58:04.999Z,13.60
2019-01-19T13:00:33.583Z,6.30
2019-01-19T13:03:02.212Z,8.58
2019-01-19T13:05:39.351Z,6.03
2019-01-19T13:08:11.556Z,7.85
2019-01-19T13:10:55.070Z,6.10
2019-01-19T13:13:23.703Z,4.53
2019-01-19T13:16:01.108Z,5.12
2019-01-19T13:18:38.627Z,9.23
2019-01-19T13:21:43.275Z,8.08
2019-01-19T13:24:30.991Z,7.60
2019-01-19T13:27:14.530Z,5.47
2019-01-19T13:30:20.387Z,6.22
2019-01-19T13:33:09.995Z,6.10
2019-01-19T13:36:10.395Z,6.53
2019-01-19T13:38:56.595Z,11.12
2019-01-19T13:41:36.778Z,12.47
2019-01-19T13:44:17.279Z,5.75
2019-01-19T13:47:14.491Z,4.90
2019-01-19T13:49:55.216Z,6.08
2019-01-19T13:52:29.780Z,7.40
2019-01-19T13:55:10.041Z,4.40
2019-01-19T13:57:50.223Z,6.12
2019-01-19T14:00:36.035Z,11.30
2019-01-19T14:03:13.677Z,8.00
2019-01-19T14:05:56.970Z,11.45
2019-01-19T14:08:49.315Z,6.97
2019-01-19T14:11:32.757Z,4.55
2019-01-19T14:14:35.743Z,12.53
2019-01-19T14:17:29.928Z,5.28
2019-01-19T14:20:16.163Z,5.22
2019-01-19T14:23:11.155Z,7.67
2019-01-19T14:25:49.671Z,7.37
2019-01-19T14:28:35.934Z,8.63
2019-01-19T14:31:25.475Z,5.25
2019-01-19T14:33:59.853Z,4.28
2019-01-19T14:36:40.294Z,4.42
2019-01-19T14:39:31.595Z,5.75
2019-01-19T14:42:28.889Z,3.80
2019-01-19T14:45:03.299Z,5.15
2019-01-19T14:48:01.706Z,6.30
2019-01-19T14:50:38.926Z,4.22
2019-01-19T14:53:31.169Z,4.87
2019-01-19T14:56:23.555Z,5.42
2019-01-19T14:59:04.008Z,8.33
2019-01-19T15:01:50.463Z,11.93
2019-01-19T15:04:30.967Z,3.15
2019-01-19T15:07:31.055Z,4.40
2019-01-19T15:10:08.184Z,6.80
2019-01-19T15:12:39.847Z,4.33
2019-01-19T15:15:11.482Z,4.00
2019-01-19T15:17:48.753Z,11.93
2019-01-19T15:20:44.194Z,8.08
2019-01-19T15:23:33.102Z,7.55
2019-01-19T15:26:19.871Z,7.28
2019-01-19T15:29:18.119Z,10.98
2019-01-19T15:32:10.027Z,10.55
2019-01-19T15:34:50.386Z,10.68
2019-01-19T15:37:24.974Z,11.25
2019-01-19T15:40:02.334Z,11.95
2019-01-19T15:43:05.232Z,7.97
2019-01-19T15:45:39.726Z,9.30
2019-01-19T15:48:27.860Z,8.33
2019-01-19T15:50:59.504Z,5.53
2019-01-19T15:53:37.019Z,12.68
2019-01-19T15:56:36.455Z,12.03
2019-01-19T15:59:11.039Z,11.68
2019-01-19T16:02:06.483Z,9.40
2019-01-19T16:04:43.680Z,16.10
2019-01-19T16:07:29.989Z,6.83
2019-01-19T16:10:19.587Z,13.18
2019-01-19T16:13:08.144Z,8.93
2019-01-19T16:15:51.386Z,9.75
2019-01-19T16:18:37.220Z,13.30
2019-01-19T16:21:37.784Z,14.68
2019-01-19T16:24:11.978Z,14.33
2019-01-19T16:26:55.677Z,20.85
2019-01-19T16:29:33.034Z,18.15
2019-01-19T16:32:22.376Z,13.50
2019-01-19T16:35:19.105Z,13.90
2019-01-19T16:38:02.547Z,16.07
2019-01-19T16:40:36.814Z,15.05
2019-01-19T16:43:35.406Z,10.40
2019-01-19T16:46:27.643Z,22.02
2019-01-19T16:49:16.808Z,19.82
2019-01-19T16:52:15.415Z,33.75
2019-01-19T16:55:07.692Z,33.33
2019-01-19T16:58:03.295Z,27.45
2019-01-19T17:00:37.478Z,22.32
2019-01-19T17:03:17.888Z,18.30
2019-01-19T17:06:19.525Z,27.37
2019-01-19T17:08:53.843Z,22.42
2019-01-19T17:11:28.417Z,25.12
2019-01-19T17:14:25.326Z,26.00
2019-01-19T17:16:57.043Z,31.57
2019-01-19T17:19:46.407Z,34.50
2019-01-19T17:22:23.635Z,15.25
2019-01-19T17:25:13.314Z,40.23
2019-01-19T17:27:47.679Z,15.48
2019-01-19T17:30:34.313Z,10.93
2019-01-19T17:33:11.816Z,11.75
2019-01-19T17:35:43.588Z,13.65
2019-01-19T17:38:27.050Z,16.60
2019-01-19T17:41:28.716Z,17.35
2019-01-19T17:44:21.586Z,16.10
2019-01-19T17:46:59.353Z,19.80
2019-01-19T17:49:45.862Z,19.82
2019-01-19T17:52:17.782Z,17.10
2019-01-19T17:55:01.712Z,27.95
2019-01-19T17:57:33.533Z,44.18
2019-01-19T18:00:19.978Z,18.15
2019-01-19T18:03:00.465Z,26.25
2019-01-19T18:05:32.483Z,29.35
2019-01-19T18:08:25.591Z,26.55
2019-01-19T18:11:03.791Z,18.52
2019-01-19T18:13:54.028Z,20.05
2019-01-19T18:16:49.830Z,27.17
2019-01-19T18:19:42.986Z,21.20
2019-01-19T18:22:24.047Z,28.00
2019-01-19T18:25:01.883Z,34.03
2019-01-19T18:27:36.560Z,35.98
2019-01-19T18:30:20.550Z,29.90
2019-01-19T18:33:07.221Z,20.95
2019-01-19T18:35:55.464Z,28.90
2019-01-19T18:38:30.209Z,40.25
2019-01-19T18:41:01.969Z,31.93
2019-01-19T18:43:56.327Z,34.78
2019-01-19T18:46:39.876Z,31.97
2019-01-19T18:49:17.704Z,29.90
2019-01-19T18:51:49.337Z,34.63
2019-01-19T18:54:35.816Z,25.65
2019-01-19T18:57:26.681Z,26.25
2019-01-19T19:00:16.027Z,27.95
2019-01-19T19:02:56.307Z,22.00
2019-01-19T19:05:42.920Z,19.65
2019-01-19T19:08:17.363Z,19.57
2019-01-19T19:11:06.763Z,24.98
2019-01-19T19:13:53.067Z,38.98
2019-01-19T19:16:24.988Z,21.52
2019-01-19T19:19:02.410Z,13.93
2019-01-19T19:21:36.887Z,22.45
2019-01-19T19:24:24.772Z,22.77
2019-01-19T19:27:10.591Z,24.50
2019-01-19T19:29:57.127Z,50.58
2019-01-19T19:32:49.643Z,34.88
2019-01-19T19:35:38.558Z,27.90
2019-01-19T19:38:22.175Z,26.57
2019-01-19T19:41:12.963Z,29.90
2019-01-19T19:43:56.339Z,31.20
2019-01-19T19:46:52.019Z,38.23
2019-01-19T19:49:26.271Z,30.48
2019-01-19T19:52:00.162Z,30.20
2019-01-19T19:54:28.995Z,30.70
2019-01-19T19:56:58.007Z,24.77
2019-01-19T19:59:26.683Z,27.85
2019-01-19T20:01:55.259Z,32.55
2019-01-19T20:04:23.855Z,32.78
2019-01-19T20:06:52.662Z,33.10
2019-01-19T20:09:21.322Z,40.00
2019-01-19T20:11:50.977Z,29.10
2019-01-19T20:14:19.590Z,47.45
2019-01-19T20:16:48.163Z,28.00
2019-01-19T20:19:16.758Z,35.23
2019-01-19T20:21:45.327Z,35.78
2019-01-19T20:24:13.950Z,32.90
2019-01-19T20:26:42.496Z,26.42
2019-01-19T20:29:11.756Z,31.40
2019-01-19T20:31:40.323Z,31.00
2019-01-19T20:34:08.919Z,22.65
2019-01-19T20:36:37.491Z,26.37
2019-01-19T20:39:07.833Z,20.20
2019-01-19T20:41:36.385Z,21.37
2019-01-19T20:44:05.248Z,28.07
2019-01-19T20:46:33.887Z,23.25
2019-01-19T20:49:02.544Z,29.27
2019-01-19T20:51:31.111Z,23.42
2019-01-19T20:53:59.711Z,29.90
2019-01-19T20:56:28.282Z,28.12
2019-01-19T20:58:56.879Z,29.90
2019-01-19T21:01:25.442Z,30.25
2019-01-19T21:03:54.043Z,26.02
2019-01-19T21:06:22.616Z,39.60
2019-01-19T21:08:51.207Z,38.88
2019-01-19T21:11:19.774Z,33.13
2019-01-19T21:13:48.416Z,31.97
2019-01-19T21:16:16.988Z,27.70
2019-01-19T21:18:45.584Z,36.23
2019-01-19T21:21:14.151Z,38.53
2019-01-19T21:23:42.751Z,39.10
2019-01-19T21:26:11.322Z,34.83
2019-01-19T21:28:39.923Z,42.83
2019-01-19T21:31:08.491Z,52.88
2019-01-19T21:33:37.071Z,47.17
2019-01-19T21:36:05.727Z,33.78
2019-01-19T21:38:34.300Z,43.10
2019-01-19T21:41:02.893Z,41.90
2019-01-19T21:43:31.580Z,34.85
2019-01-19T21:46:00.244Z,38.50
2019-01-19T21:48:28.819Z,44.48
2019-01-19T21:50:57.414Z,47.13
2019-01-19T21:53:25.986Z,39.45
2019-01-19T21:55:54.583Z,43.30
2019-01-19T21:58:23.160Z,35.52
2019-01-19T22:00:51.751Z,35.15
2019-01-19T22:03:20.318Z,47.60
2019-01-19T22:05:49.757Z,45.58
2019-01-19T22:08:18.546Z,51.53
2019-01-19T22:10:47.210Z,42.40
2019-01-19T22:13:15.774Z,44.73
2019-01-19T22:15:44.370Z,41.58
2019-01-19T22:18:12.941Z,38.63
2019-01-19T22:20:41.531Z,35.13
2019-01-19T22:23:10.105Z,34.95
2019-01-19T22:25:38.702Z,33.80
2019-01-19T22:28:07.258Z,37.78
2019-01-19T22:30:35.846Z,39.15
2019-01-19T22:33:04.650Z,43.00
2019-01-19T22:35:33.306Z,31.80
2019-01-19T22:38:01.879Z,35.48
2019-01-19T22:40:30.471Z,32.67
2019-01-19T22:42:59.067Z,39.58
2019-01-19T22:45:27.654Z,41.60
2019-01-19T22:47:56.223Z,32.00
2019-01-19T22:50:24.825Z,33.08
2019-01-19T22:52:53.401Z,44.33
2019-01-19T22:55:21.987Z,44.88
2019-01-19T22:57:50.550Z,46.05
2019-01-19T23:00:59.679Z,44.70
2019-01-19T23:03:29.690Z,39.18
2019-01-19T23:05:58.460Z,53.90
2019-01-19T23:08:27.038Z,37.75
2019-01-19T23:11:01.111Z,50.88
2019-01-19T23:13:25.839Z,43.83
2019-01-19T23:15:54.433Z,44.98
2019-01-19T23:18:23.005Z,43.58
2019-01-19T23:20:51.664Z,48.80
2019-01-19T23:23:20.312Z,45.58
2019-01-19T23:25:48.907Z,43.80
2019-01-19T23:28:17.481Z,47.15
2019-01-19T23:30:46.079Z,37.03
2019-01-19T23:33:14.645Z,44.30
2019-01-19T23:35:43.232Z,45.70
2019-01-19T23:38:11.807Z,44.58
2019-01-19T23:40:40.403Z,38.40
2019-01-19T23:43:08.979Z,41.85
2019-01-19T23:45:37.571Z,45.30
2019-01-19T23:48:06.138Z,44.00
2019-01-19T23:50:34.731Z,42.80
2019-01-19T23:53:03.305Z,33.05
2019-01-19T23:55:31.895Z,41.60
2019-01-19T23:58:00.471Z,39.03
